sensor_id;sensor_type;location;lat;lon;timestamp;P1;durP1;ratioP1;P2;durP2;ratioP2
13040;SDS011;6587;42.728;23.288;2023-04-01T00:00:31;28.37;;;17.30;;
13040;SDS011;6587;42.728;23.288;2023-04-01T00:02:58;34.77;;;18.27;;
13040;SDS011;6587;42.728;23.288;2023-04-01T00:05:25;31.73;;;19.03;;
13040;SDS011;6587;42.728;23.288;2023-04-01T00:07:52;32.77;;;18.20;;
13040;SDS011;6587;42.728;23.288;2023-04-01T00:10:18;31.27;;;18.13;;
13040;SDS011;6587;42.728;23.288;2023-04-01T00:12:45;29.07;;;18.00;;
13040;SDS011;6587;42.728;23.288;2023-04-01T00:15:12;30.00;;;18.13;;
13040;SDS011;6587;42.728;23.288;2023-04-01T00:17:40;28.87;;;17.53;;
13040;SDS011;6587;42.728;23.288;2023-04-01T00:20:07;34.30;;;18.90;;
13040;SDS011;6587;42.728;23.288;2023-04-01T00:22:34;31.50;;;18.80;;
13040;SDS011;6587;42.728;23.288;2023-04-01T00:25:01;28.20;;;18.23;;
13040;SDS011;6587;42.728;23.288;2023-04-01T00:27:28;32.47;;;17.33;;
13040;SDS011;6587;42.728;23.288;2023-04-01T00:29:55;30.87;;;18.90;;
13040;SDS011;6587;42.728;23.288;2023-04-01T00:32:21;37.40;;;20.77;;
13040;SDS011;6587;42.728;23.288;2023-04-01T00:34:51;43.97;;;21.93;;
13040;SDS011;6587;42.728;23.288;2023-04-01T00:37:18;37.00;;;21.47;;
13040;SDS011;6587;42.728;23.288;2023-04-01T00:39:46;39.73;;;21.50;;
13040;SDS011;6587;42.728;23.288;2023-04-01T00:42:13;36.17;;;19.33;;
13040;SDS011;6587;42.728;23.288;2023-04-01T00:44:40;33.53;;;18.87;;
13040;SDS011;6587;42.728;23.288;2023-04-01T00:47:07;35.70;;;19.23;;
13040;SDS011;6587;42.728;23.288;2023-04-01T00:49:35;31.20;;;18.10;;
13040;SDS011;6587;42.728;23.288;2023-04-01T00:52:05;29.63;;;17.60;;
13040;SDS011;6587;42.728;23.288;2023-04-01T00:54:34;26.80;;;15.73;;
13040;SDS011;6587;42.728;23.288;2023-04-01T00:57:03;25.83;;;14.60;;
13040;SDS011;6587;42.728;23.288;2023-04-01T00:59:32;25.97;;;14.30;;
13040;SDS011;6587;42.728;23.288;2023-04-01T01:02:00;23.90;;;14.53;;
13040;SDS011;6587;42.728;23.288;2023-04-01T01:04:28;22.17;;;14.10;;
13040;SDS011;6587;42.728;23.288;2023-04-01T01:06:57;24.80;;;13.53;;
13040;SDS011;6587;42.728;23.288;2023-04-01T01:09:30;24.77;;;13.63;;
13040;SDS011;6587;42.728;23.288;2023-04-01T01:12:00;23.47;;;13.37;;
13040;SDS011;6587;42.728;23.288;2023-04-01T01:14:33;23.77;;;13.93;;
13040;SDS011;6587;42.728;23.288;2023-04-01T01:17:04;24.83;;;13.90;;
13040;SDS011;6587;42.728;23.288;2023-04-01T01:19:44;26.33;;;14.27;;
13040;SDS011;6587;42.728;23.288;2023-04-01T01:22:22;22.97;;;13.87;;
13040;SDS011;6587;42.728;23.288;2023-04-01T01:25:04;20.40;;;13.37;;
13040;SDS011;6587;42.728;23.288;2023-04-01T01:27:39;24.20;;;13.90;;
13040;SDS011;6587;42.728;23.288;2023-04-01T01:30:11;22.07;;;13.60;;
13040;SDS011;6587;42.728;23.288;2023-04-01T01:32:54;22.03;;;14.17;;
13040;SDS011;6587;42.728;23.288;2023-04-01T01:35:26;21.53;;;13.43;;
13040;SDS011;6587;42.728;23.288;2023-04-01T01:37:55;18.87;;;12.17;;
13040;SDS011;6587;42.728;23.288;2023-04-01T01:40:22;21.20;;;13.03;;
13040;SDS011;6587;42.728;23.288;2023-04-01T01:42:52;19.60;;;12.23;;
13040;SDS011;6587;42.728;23.288;2023-04-01T01:45:21;21.60;;;11.87;;
13040;SDS011;6587;42.728;23.288;2023-04-01T01:47:49;20.20;;;12.03;;
13040;SDS011;6587;42.728;23.288;2023-04-01T01:50:17;19.50;;;12.63;;
13040;SDS011;6587;42.728;23.288;2023-04-01T01:52:46;22.30;;;13.47;;
13040;SDS011;6587;42.728;23.288;2023-04-01T01:55:23;21.43;;;12.90;;
13040;SDS011;6587;42.728;23.288;2023-04-01T01:57:51;27.60;;;14.17;;
13040;SDS011;6587;42.728;23.288;2023-04-01T02:00:18;27.93;;;17.07;;
13040;SDS011;6587;42.728;23.288;2023-04-01T02:02:46;30.80;;;20.90;;
13040;SDS011;6587;42.728;23.288;2023-04-01T02:05:14;37.70;;;21.83;;
13040;SDS011;6587;42.728;23.288;2023-04-01T02:07:43;29.60;;;17.50;;
13040;SDS011;6587;42.728;23.288;2023-04-01T02:10:15;32.03;;;17.77;;
13040;SDS011;6587;42.728;23.288;2023-04-01T02:12:42;31.47;;;17.20;;
13040;SDS011;6587;42.728;23.288;2023-04-01T02:15:11;31.47;;;19.00;;
13040;SDS011;6587;42.728;23.288;2023-04-01T02:17:42;41.93;;;21.07;;
13040;SDS011;6587;42.728;23.288;2023-04-01T02:20:11;38.83;;;20.53;;
13040;SDS011;6587;42.728;23.288;2023-04-01T02:22:42;28.60;;;19.03;;
13040;SDS011;6587;42.728;23.288;2023-04-01T02:25:11;31.40;;;20.63;;
13040;SDS011;6587;42.728;23.288;2023-04-01T02:27:40;40.67;;;20.17;;
13040;SDS011;6587;42.728;23.288;2023-04-01T02:30:08;30.70;;;20.77;;
13040;SDS011;6587;42.728;23.288;2023-04-01T02:32:35;31.67;;;21.33;;
13040;SDS011;6587;42.728;23.288;2023-04-01T02:35:03;40.33;;;23.83;;
13040;SDS011;6587;42.728;23.288;2023-04-01T02:37:31;40.63;;;24.47;;
13040;SDS011;6587;42.728;23.288;2023-04-01T02:39:59;39.00;;;24.00;;
13040;SDS011;6587;42.728;23.288;2023-04-01T02:42:26;31.07;;;17.73;;
13040;SDS011;6587;42.728;23.288;2023-04-01T02:44:55;27.83;;;15.90;;
13040;SDS011;6587;42.728;23.288;2023-04-01T02:47:21;23.40;;;14.40;;
13040;SDS011;6587;42.728;23.288;2023-04-01T02:49:48;22.20;;;13.67;;
13040;SDS011;6587;42.728;23.288;2023-04-01T02:52:15;27.57;;;15.17;;
13040;SDS011;6587;42.728;23.288;2023-04-01T02:54:42;26.70;;;15.10;;
13040;SDS011;6587;42.728;23.288;2023-04-01T02:57:08;22.83;;;13.90;;
13040;SDS011;6587;42.728;23.288;2023-04-01T02:59:35;24.33;;;13.60;;
13040;SDS011;6587;42.728;23.288;2023-04-01T03:02:03;21.53;;;13.70;;
13040;SDS011;6587;42.728;23.288;2023-04-01T03:04:30;26.53;;;14.03;;
13040;SDS011;6587;42.728;23.288;2023-04-01T03:06:57;23.97;;;13.97;;
13040;SDS011;6587;42.728;23.288;2023-04-01T03:09:24;21.43;;;12.90;;
13040;SDS011;6587;42.728;23.288;2023-04-01T03:11:51;22.97;;;13.13;;
13040;SDS011;6587;42.728;23.288;2023-04-01T03:14:18;21.40;;;13.53;;
13040;SDS011;6587;42.728;23.288;2023-04-01T03:16:45;24.07;;;13.43;;
13040;SDS011;6587;42.728;23.288;2023-04-01T03:19:13;17.93;;;11.70;;
13040;SDS011;6587;42.728;23.288;2023-04-01T03:21:40;20.50;;;11.90;;
13040;SDS011;6587;42.728;23.288;2023-04-01T03:24:07;18.77;;;11.80;;
13040;SDS011;6587;42.728;23.288;2023-04-01T03:26:33;21.50;;;12.53;;
13040;SDS011;6587;42.728;23.288;2023-04-01T03:29:00;22.57;;;13.47;;
13040;SDS011;6587;42.728;23.288;2023-04-01T03:31:27;19.43;;;12.97;;
13040;SDS011;6587;42.728;23.288;2023-04-01T03:33:55;20.37;;;13.33;;
13040;SDS011;6587;42.728;23.288;2023-04-01T03:36:24;20.53;;;13.37;;
13040;SDS011;6587;42.728;23.288;2023-04-01T03:38:50;22.17;;;13.13;;
13040;SDS011;6587;42.728;23.288;2023-04-01T03:41:23;20.97;;;13.73;;
13040;SDS011;6587;42.728;23.288;2023-04-01T03:43:51;21.67;;;13.93;;
13040;SDS011;6587;42.728;23.288;2023-04-01T03:46:19;22.50;;;13.63;;
13040;SDS011;6587;42.728;23.288;2023-04-01T03:48:46;22.63;;;14.57;;
13040;SDS011;6587;42.728;23.288;2023-04-01T03:51:13;25.17;;;12.90;;
13040;SDS011;6587;42.728;23.288;2023-04-01T03:53:41;23.40;;;12.93;;
13040;SDS011;6587;42.728;23.288;2023-04-01T03:56:08;22.50;;;13.10;;
13040;SDS011;6587;42.728;23.288;2023-04-01T03:58:35;22.47;;;12.90;;
13040;SDS011;6587;42.728;23.288;2023-04-01T04:01:13;20.13;;;13.23;;
13040;SDS011;6587;42.728;23.288;2023-04-01T04:03:39;25.33;;;14.40;;
13040;SDS011;6587;42.728;23.288;2023-04-01T04:06:09;25.93;;;13.33;;
13040;SDS011;6587;42.728;23.288;2023-04-01T04:08:37;20.67;;;12.10;;
13040;SDS011;6587;42.728;23.288;2023-04-01T04:11:05;21.47;;;11.23;;
13040;SDS011;6587;42.728;23.288;2023-04-01T04:13:33;16.70;;;11.13;;
13040;SDS011;6587;42.728;23.288;2023-04-01T04:16:01;17.47;;;11.17;;
13040;SDS011;6587;42.728;23.288;2023-04-01T04:18:28;20.17;;;11.37;;
13040;SDS011;6587;42.728;23.288;2023-04-01T04:20:55;18.70;;;12.20;;
13040;SDS011;6587;42.728;23.288;2023-04-01T04:23:24;21.17;;;12.67;;
13040;SDS011;6587;42.728;23.288;2023-04-01T04:25:54;17.30;;;10.70;;
13040;SDS011;6587;42.728;23.288;2023-04-01T04:28:22;19.30;;;10.83;;
13040;SDS011;6587;42.728;23.288;2023-04-01T04:30:51;14.37;;;9.13;;
13040;SDS011;6587;42.728;23.288;2023-04-01T04:33:19;15.07;;;9.20;;
13040;SDS011;6587;42.728;23.288;2023-04-01T04:35:45;13.73;;;8.83;;
13040;SDS011;6587;42.728;23.288;2023-04-01T04:38:12;18.60;;;9.77;;
13040;SDS011;6587;42.728;23.288;2023-04-01T04:40:40;19.87;;;10.67;;
13040;SDS011;6587;42.728;23.288;2023-04-01T04:43:07;17.03;;;11.67;;
13040;SDS011;6587;42.728;23.288;2023-04-01T04:45:37;18.77;;;11.53;;
13040;SDS011;6587;42.728;23.288;2023-04-01T04:48:04;22.90;;;11.40;;
13040;SDS011;6587;42.728;23.288;2023-04-01T04:50:31;21.87;;;12.90;;
13040;SDS011;6587;42.728;23.288;2023-04-01T04:52:58;20.93;;;11.77;;
13040;SDS011;6587;42.728;23.288;2023-04-01T04:55:25;20.57;;;12.03;;
13040;SDS011;6587;42.728;23.288;2023-04-01T04:58:11;17.47;;;11.13;;
13040;SDS011;6587;42.728;23.288;2023-04-01T05:00:42;19.87;;;11.70;;
13040;SDS011;6587;42.728;23.288;2023-04-01T05:03:17;18.77;;;10.20;;
13040;SDS011;6587;42.728;23.288;2023-04-01T05:05:50;17.87;;;11.57;;
13040;SDS011;6587;42.728;23.288;2023-04-01T05:08:17;22.43;;;13.50;;
13040;SDS011;6587;42.728;23.288;2023-04-01T05:10:45;20.13;;;12.00;;
13040;SDS011;6587;42.728;23.288;2023-04-01T05:13:12;21.13;;;11.80;;
13040;SDS011;6587;42.728;23.288;2023-04-01T05:15:39;19.50;;;11.87;;
13040;SDS011;6587;42.728;23.288;2023-04-01T05:18:08;24.93;;;14.10;;
13040;SDS011;6587;42.728;23.288;2023-04-01T05:20:35;23.43;;;13.87;;
13040;SDS011;6587;42.728;23.288;2023-04-01T05:23:02;22.07;;;12.77;;
13040;SDS011;6587;42.728;23.288;2023-04-01T05:25:28;23.10;;;11.70;;
13040;SDS011;6587;42.728;23.288;2023-04-01T05:27:55;20.23;;;10.73;;
13040;SDS011;6587;42.728;23.288;2023-04-01T05:30:22;22.10;;;11.87;;
13040;SDS011;6587;42.728;23.288;2023-04-01T05:33:09;34.33;;;18.57;;
13040;SDS011;6587;42.728;23.288;2023-04-01T05:35:36;24.70;;;13.60;;
13040;SDS011;6587;42.728;23.288;2023-04-01T05:38:03;32.07;;;17.70;;
13040;SDS011;6587;42.728;23.288;2023-04-01T05:40:30;34.50;;;19.43;;
13040;SDS011;6587;42.728;23.288;2023-04-01T05:42:56;24.77;;;15.13;;
13040;SDS011;6587;42.728;23.288;2023-04-01T05:45:23;22.07;;;14.40;;
13040;SDS011;6587;42.728;23.288;2023-04-01T05:47:50;26.90;;;15.47;;
13040;SDS011;6587;42.728;23.288;2023-04-01T05:50:19;24.97;;;13.87;;
13040;SDS011;6587;42.728;23.288;2023-04-01T05:52:46;30.50;;;15.80;;
13040;SDS011;6587;42.728;23.288;2023-04-01T05:55:13;25.87;;;14.00;;
13040;SDS011;6587;42.728;23.288;2023-04-01T05:57:40;26.67;;;13.97;;
13040;SDS011;6587;42.728;23.288;2023-04-01T06:00:07;26.10;;;13.30;;
13040;SDS011;6587;42.728;23.288;2023-04-01T06:02:40;21.40;;;11.30;;
13040;SDS011;6587;42.728;23.288;2023-04-01T06:05:11;18.53;;;10.67;;
13040;SDS011;6587;42.728;23.288;2023-04-01T06:07:40;16.73;;;10.30;;
13040;SDS011;6587;42.728;23.288;2023-04-01T06:10:10;19.03;;;9.27;;
13040;SDS011;6587;42.728;23.288;2023-04-01T06:12:40;18.97;;;8.50;;
13040;SDS011;6587;42.728;23.288;2023-04-01T06:15:13;13.83;;;8.07;;
13040;SDS011;6587;42.728;23.288;2023-04-01T06:17:45;13.97;;;7.80;;
13040;SDS011;6587;42.728;23.288;2023-04-01T06:20:16;19.83;;;7.63;;
13040;SDS011;6587;42.728;23.288;2023-04-01T06:22:51;15.73;;;7.30;;
13040;SDS011;6587;42.728;23.288;2023-04-01T06:28:18;17.03;;;7.73;;
13040;SDS011;6587;42.728;23.288;2023-04-01T06:30:50;12.67;;;7.20;;
13040;SDS011;6587;42.728;23.288;2023-04-01T06:33:30;18.93;;;8.43;;
13040;SDS011;6587;42.728;23.288;2023-04-01T06:36:15;12.37;;;7.90;;
13040;SDS011;6587;42.728;23.288;2023-04-01T06:38:49;14.20;;;8.70;;
13040;SDS011;6587;42.728;23.288;2023-04-01T06:41:32;16.40;;;9.73;;
13040;SDS011;6587;42.728;23.288;2023-04-01T06:44:07;17.73;;;9.50;;
13040;SDS011;6587;42.728;23.288;2023-04-01T06:47:14;16.43;;;9.70;;
13040;SDS011;6587;42.728;23.288;2023-04-01T06:50:05;19.17;;;8.83;;
13040;SDS011;6587;42.728;23.288;2023-04-01T06:52:54;16.77;;;8.20;;
13040;SDS011;6587;42.728;23.288;2023-04-01T06:55:46;20.67;;;8.23;;
13040;SDS011;6587;42.728;23.288;2023-04-01T06:58:33;13.77;;;7.17;;
13040;SDS011;6587;42.728;23.288;2023-04-01T07:01:02;15.37;;;8.07;;
13040;SDS011;6587;42.728;23.288;2023-04-01T07:03:31;27.70;;;7.57;;
13040;SDS011;6587;42.728;23.288;2023-04-01T07:06:01;17.07;;;9.97;;
13040;SDS011;6587;42.728;23.288;2023-04-01T07:08:29;10.80;;;5.83;;
13040;SDS011;6587;42.728;23.288;2023-04-01T07:11:00;12.73;;;5.60;;
13040;SDS011;6587;42.728;23.288;2023-04-01T07:13:52;14.20;;;6.17;;
13040;SDS011;6587;42.728;23.288;2023-04-01T07:16:20;9.60;;;5.87;;
13040;SDS011;6587;42.728;23.288;2023-04-01T07:18:48;17.93;;;6.93;;
13040;SDS011;6587;42.728;23.288;2023-04-01T07:21:24;11.10;;;6.03;;
13040;SDS011;6587;42.728;23.288;2023-04-01T07:23:54;8.73;;;5.87;;
13040;SDS011;6587;42.728;23.288;2023-04-01T07:26:32;11.33;;;5.93;;
13040;SDS011;6587;42.728;23.288;2023-04-01T07:29:05;9.13;;;5.97;;
13040;SDS011;6587;42.728;23.288;2023-04-01T07:31:46;10.57;;;6.10;;
13040;SDS011;6587;42.728;23.288;2023-04-01T07:34:17;13.70;;;6.57;;
13040;SDS011;6587;42.728;23.288;2023-04-01T07:36:47;14.17;;;6.43;;
13040;SDS011;6587;42.728;23.288;2023-04-01T07:39:18;10.40;;;5.47;;
13040;SDS011;6587;42.728;23.288;2023-04-01T07:42:15;12.37;;;6.23;;
13040;SDS011;6587;42.728;23.288;2023-04-01T07:44:44;13.47;;;8.83;;
13040;SDS011;6587;42.728;23.288;2023-04-01T07:47:18;17.03;;;8.00;;
13040;SDS011;6587;42.728;23.288;2023-04-01T07:49:52;16.53;;;9.73;;
13040;SDS011;6587;42.728;23.288;2023-04-01T07:52:22;17.17;;;8.40;;
13040;SDS011;6587;42.728;23.288;2023-04-01T07:54:59;13.97;;;6.77;;
13040;SDS011;6587;42.728;23.288;2023-04-01T07:57:30;11.77;;;7.00;;
13040;SDS011;6587;42.728;23.288;2023-04-01T08:00:02;13.57;;;6.90;;
13040;SDS011;6587;42.728;23.288;2023-04-01T08:02:51;14.27;;;7.47;;
13040;SDS011;6587;42.728;23.288;2023-04-01T08:05:26;10.33;;;6.57;;
13040;SDS011;6587;42.728;23.288;2023-04-01T08:07:57;11.03;;;6.40;;
13040;SDS011;6587;42.728;23.288;2023-04-01T08:10:55;11.07;;;5.67;;
13040;SDS011;6587;42.728;23.288;2023-04-01T08:13:44;14.47;;;5.47;;
13040;SDS011;6587;42.728;23.288;2023-04-01T08:16:32;17.90;;;5.77;;
13040;SDS011;6587;42.728;23.288;2023-04-01T08:19:04;9.97;;;5.80;;
13040;SDS011;6587;42.728;23.288;2023-04-01T08:21:38;10.13;;;5.67;;
13040;SDS011;6587;42.728;23.288;2023-04-01T08:24:11;8.20;;;4.93;;
13040;SDS011;6587;42.728;23.288;2023-04-01T08:26:44;11.60;;;5.50;;
13040;SDS011;6587;42.728;23.288;2023-04-01T08:29:15;9.40;;;5.03;;
13040;SDS011;6587;42.728;23.288;2023-04-01T08:31:45;8.53;;;5.63;;
13040;SDS011;6587;42.728;23.288;2023-04-01T08:34:16;14.50;;;5.83;;
13040;SDS011;6587;42.728;23.288;2023-04-01T08:36:44;10.97;;;5.80;;
13040;SDS011;6587;42.728;23.288;2023-04-01T08:39:16;11.17;;;5.00;;
13040;SDS011;6587;42.728;23.288;2023-04-01T08:41:54;12.90;;;5.50;;
13040;SDS011;6587;42.728;23.288;2023-04-01T08:44:49;12.53;;;4.70;;
13040;SDS011;6587;42.728;23.288;2023-04-01T08:50:23;12.43;;;4.40;;
13040;SDS011;6587;42.728;23.288;2023-04-01T08:53:06;10.77;;;4.10;;
13040;SDS011;6587;42.728;23.288;2023-04-01T09:01:44;7.93;;;3.90;;
13040;SDS011;6587;42.728;23.288;2023-04-01T09:04:42;7.23;;;3.97;;
13040;SDS011;6587;42.728;23.288;2023-04-01T09:07:15;8.63;;;3.90;;
13040;SDS011;6587;42.728;23.288;2023-04-01T09:10:00;9.13;;;4.30;;
13040;SDS011;6587;42.728;23.288;2023-04-01T09:12:37;6.07;;;3.30;;
13040;SDS011;6587;42.728;23.288;2023-04-01T09:15:17;7.33;;;3.77;;
13040;SDS011;6587;42.728;23.288;2023-04-01T09:20:35;11.90;;;3.33;;
13040;SDS011;6587;42.728;23.288;2023-04-01T09:23:10;11.37;;;4.17;;
13040;SDS011;6587;42.728;23.288;2023-04-01T09:25:44;8.77;;;4.13;;
13040;SDS011;6587;42.728;23.288;2023-04-01T09:28:14;10.53;;;4.57;;
13040;SDS011;6587;42.728;23.288;2023-04-01T09:30:57;13.97;;;6.40;;
13040;SDS011;6587;42.728;23.288;2023-04-01T09:36:16;10.60;;;4.57;;
13040;SDS011;6587;42.728;23.288;2023-04-01T09:38:49;9.57;;;3.90;;
13040;SDS011;6587;42.728;23.288;2023-04-01T09:41:20;10.43;;;4.00;;
13040;SDS011;6587;42.728;23.288;2023-04-01T09:44:00;7.03;;;4.00;;
13040;SDS011;6587;42.728;23.288;2023-04-01T09:46:36;9.50;;;4.57;;
13040;SDS011;6587;42.728;23.288;2023-04-01T09:49:11;9.63;;;4.20;;
13040;SDS011;6587;42.728;23.288;2023-04-01T09:51:45;8.77;;;4.07;;
13040;SDS011;6587;42.728;23.288;2023-04-01T09:54:20;6.93;;;4.43;;
13040;SDS011;6587;42.728;23.288;2023-04-01T09:59:47;8.27;;;3.93;;
13040;SDS011;6587;42.728;23.288;2023-04-01T10:02:52;9.37;;;4.80;;
13040;SDS011;6587;42.728;23.288;2023-04-01T10:05:33;7.60;;;3.60;;
13040;SDS011;6587;42.728;23.288;2023-04-01T10:08:15;9.53;;;4.27;;
13040;SDS011;6587;42.728;23.288;2023-04-01T10:13:47;11.13;;;4.70;;
13040;SDS011;6587;42.728;23.288;2023-04-01T10:22:00;7.83;;;4.30;;
13040;SDS011;6587;42.728;23.288;2023-04-01T10:24:40;10.23;;;4.00;;
13040;SDS011;6587;42.728;23.288;2023-04-01T10:27:21;11.00;;;4.00;;
13040;SDS011;6587;42.728;23.288;2023-04-01T10:33:07;11.47;;;5.30;;
13040;SDS011;6587;42.728;23.288;2023-04-01T10:35:49;6.23;;;3.77;;
13040;SDS011;6587;42.728;23.288;2023-04-01T10:41:40;10.87;;;4.43;;
13040;SDS011;6587;42.728;23.288;2023-04-01T10:44:42;10.43;;;5.63;;
13040;SDS011;6587;42.728;23.288;2023-04-01T10:47:39;10.47;;;4.10;;
13040;SDS011;6587;42.728;23.288;2023-04-01T10:50:16;12.23;;;5.50;;
13040;SDS011;6587;42.728;23.288;2023-04-01T10:52:55;10.27;;;4.47;;
13040;SDS011;6587;42.728;23.288;2023-04-01T10:55:37;8.23;;;4.63;;
13040;SDS011;6587;42.728;23.288;2023-04-01T10:58:43;12.90;;;5.03;;
13040;SDS011;6587;42.728;23.288;2023-04-01T11:07:57;10.50;;;4.80;;
13040;SDS011;6587;42.728;23.288;2023-04-01T11:10:34;9.37;;;4.87;;
13040;SDS011;6587;42.728;23.288;2023-04-01T11:13:23;7.53;;;4.23;;
13040;SDS011;6587;42.728;23.288;2023-04-01T11:16:05;11.07;;;5.23;;
13040;SDS011;6587;42.728;23.288;2023-04-01T11:18:49;9.30;;;4.07;;
13040;SDS011;6587;42.728;23.288;2023-04-01T11:24:12;13.73;;;7.27;;
13040;SDS011;6587;42.728;23.288;2023-04-01T11:27:05;11.93;;;5.97;;
13040;SDS011;6587;42.728;23.288;2023-04-01T11:29:50;11.67;;;6.13;;
13040;SDS011;6587;42.728;23.288;2023-04-01T11:32:31;13.47;;;5.07;;
13040;SDS011;6587;42.728;23.288;2023-04-01T11:35:18;20.03;;;6.67;;
13040;SDS011;6587;42.728;23.288;2023-04-01T11:37:47;12.33;;;6.57;;
13040;SDS011;6587;42.728;23.288;2023-04-01T11:40:37;7.83;;;3.37;;
13040;SDS011;6587;42.728;23.288;2023-04-01T11:43:27;6.63;;;3.17;;
13040;SDS011;6587;42.728;23.288;2023-04-01T11:46:22;9.73;;;3.50;;
13040;SDS011;6587;42.728;23.288;2023-04-01T11:48:53;7.07;;;3.50;;
13040;SDS011;6587;42.728;23.288;2023-04-01T11:54:14;6.97;;;3.83;;
13040;SDS011;6587;42.728;23.288;2023-04-01T11:56:52;8.87;;;4.10;;
13040;SDS011;6587;42.728;23.288;2023-04-01T12:02:07;12.43;;;4.47;;
13040;SDS011;6587;42.728;23.288;2023-04-01T12:07:27;7.60;;;4.03;;
13040;SDS011;6587;42.728;23.288;2023-04-01T12:09:58;6.60;;;3.80;;
13040;SDS011;6587;42.728;23.288;2023-04-01T12:12:31;7.60;;;4.20;;
13040;SDS011;6587;42.728;23.288;2023-04-01T12:15:04;6.50;;;4.20;;
13040;SDS011;6587;42.728;23.288;2023-04-01T12:17:35;5.83;;;3.90;;
13040;SDS011;6587;42.728;23.288;2023-04-01T12:20:12;8.27;;;4.50;;
13040;SDS011;6587;42.728;23.288;2023-04-01T12:22:48;10.00;;;4.70;;
13040;SDS011;6587;42.728;23.288;2023-04-01T12:25:27;7.13;;;4.10;;
13040;SDS011;6587;42.728;23.288;2023-04-01T12:28:03;8.70;;;4.97;;
13040;SDS011;6587;42.728;23.288;2023-04-01T12:30:42;6.17;;;4.30;;
13040;SDS011;6587;42.728;23.288;2023-04-01T12:33:25;8.30;;;4.03;;
13040;SDS011;6587;42.728;23.288;2023-04-01T12:35:55;8.10;;;4.47;;
13040;SDS011;6587;42.728;23.288;2023-04-01T12:38:29;7.00;;;4.43;;
13040;SDS011;6587;42.728;23.288;2023-04-01T12:41:03;9.90;;;4.70;;
13040;SDS011;6587;42.728;23.288;2023-04-01T12:46:23;8.70;;;3.90;;
13040;SDS011;6587;42.728;23.288;2023-04-01T12:49:01;7.07;;;4.40;;
13040;SDS011;6587;42.728;23.288;2023-04-01T12:51:41;10.20;;;4.83;;
13040;SDS011;6587;42.728;23.288;2023-04-01T12:54:20;8.90;;;4.30;;
13040;SDS011;6587;42.728;23.288;2023-04-01T12:56:52;6.87;;;4.20;;
13040;SDS011;6587;42.728;23.288;2023-04-01T12:59:26;9.40;;;4.27;;
13040;SDS011;6587;42.728;23.288;2023-04-01T13:02:07;7.03;;;4.23;;
13040;SDS011;6587;42.728;23.288;2023-04-01T13:04:39;9.27;;;4.87;;
13040;SDS011;6587;42.728;23.288;2023-04-01T13:07:16;4.97;;;4.40;;
13040;SDS011;6587;42.728;23.288;2023-04-01T13:09:50;10.43;;;5.97;;
13040;SDS011;6587;42.728;23.288;2023-04-01T13:12:43;7.30;;;5.13;;
13040;SDS011;6587;42.728;23.288;2023-04-01T13:15:26;8.83;;;4.90;;
13040;SDS011;6587;42.728;23.288;2023-04-01T13:17:57;9.97;;;5.00;;
13040;SDS011;6587;42.728;23.288;2023-04-01T13:20:32;8.03;;;4.83;;
13040;SDS011;6587;42.728;23.288;2023-04-01T13:23:06;12.37;;;7.50;;
13040;SDS011;6587;42.728;23.288;2023-04-01T13:25:38;10.13;;;5.80;;
13040;SDS011;6587;42.728;23.288;2023-04-01T13:28:07;5.57;;;3.57;;
13040;SDS011;6587;42.728;23.288;2023-04-01T13:30:37;10.77;;;5.87;;
13040;SDS011;6587;42.728;23.288;2023-04-01T13:33:08;7.73;;;4.03;;
13040;SDS011;6587;42.728;23.288;2023-04-01T13:35:39;9.10;;;4.93;;
13040;SDS011;6587;42.728;23.288;2023-04-01T13:40:54;10.63;;;5.10;;
13040;SDS011;6587;42.728;23.288;2023-04-01T13:43:28;7.37;;;3.03;;
13040;SDS011;6587;42.728;23.288;2023-04-01T13:48:48;8.40;;;3.60;;
13040;SDS011;6587;42.728;23.288;2023-04-01T13:51:30;5.70;;;3.43;;
13040;SDS011;6587;42.728;23.288;2023-04-01T13:54:18;4.37;;;2.40;;
13040;SDS011;6587;42.728;23.288;2023-04-01T13:56:53;5.03;;;2.50;;
13040;SDS011;6587;42.728;23.288;2023-04-01T13:59:32;5.50;;;2.60;;
13040;SDS011;6587;42.728;23.288;2023-04-01T14:02:06;5.67;;;2.40;;
13040;SDS011;6587;42.728;23.288;2023-04-01T14:04:47;5.83;;;2.57;;
13040;SDS011;6587;42.728;23.288;2023-04-01T14:07:18;5.07;;;2.70;;
13040;SDS011;6587;42.728;23.288;2023-04-01T14:10:02;3.53;;;2.00;;
13040;SDS011;6587;42.728;23.288;2023-04-01T14:12:34;3.60;;;2.30;;
13040;SDS011;6587;42.728;23.288;2023-04-01T14:15:06;3.23;;;2.00;;
13040;SDS011;6587;42.728;23.288;2023-04-01T14:17:38;2.23;;;1.57;;
13040;SDS011;6587;42.728;23.288;2023-04-01T14:20:16;3.73;;;2.80;;
13040;SDS011;6587;42.728;23.288;2023-04-01T14:22:50;7.67;;;3.07;;
13040;SDS011;6587;42.728;23.288;2023-04-01T14:28:21;6.60;;;3.17;;
13040;SDS011;6587;42.728;23.288;2023-04-01T14:30:54;5.30;;;3.23;;
13040;SDS011;6587;42.728;23.288;2023-04-01T14:33:30;7.03;;;3.17;;
13040;SDS011;6587;42.728;23.288;2023-04-01T14:36:02;6.87;;;3.87;;
13040;SDS011;6587;42.728;23.288;2023-04-01T14:38:35;6.53;;;3.63;;
13040;SDS011;6587;42.728;23.288;2023-04-01T14:41:19;3.90;;;3.40;;
13040;SDS011;6587;42.728;23.288;2023-04-01T14:46:48;6.47;;;3.47;;
13040;SDS011;6587;42.728;23.288;2023-04-01T14:49:17;5.57;;;3.83;;
13040;SDS011;6587;42.728;23.288;2023-04-01T14:51:46;6.97;;;4.10;;
13040;SDS011;6587;42.728;23.288;2023-04-01T14:54:13;8.97;;;4.40;;
13040;SDS011;6587;42.728;23.288;2023-04-01T14:56:48;4.50;;;3.67;;
13040;SDS011;6587;42.728;23.288;2023-04-01T14:59:17;5.33;;;3.70;;
13040;SDS011;6587;42.728;23.288;2023-04-01T15:01:55;6.00;;;3.83;;
13040;SDS011;6587;42.728;23.288;2023-04-01T15:07:18;8.57;;;4.13;;
13040;SDS011;6587;42.728;23.288;2023-04-01T15:09:49;6.70;;;4.00;;
13040;SDS011;6587;42.728;23.288;2023-04-01T15:12:22;7.07;;;3.73;;
13040;SDS011;6587;42.728;23.288;2023-04-01T15:14:58;6.67;;;3.83;;
13040;SDS011;6587;42.728;23.288;2023-04-01T15:17:32;7.53;;;3.63;;
13040;SDS011;6587;42.728;23.288;2023-04-01T15:20:18;8.97;;;5.03;;
13040;SDS011;6587;42.728;23.288;2023-04-01T15:22:52;9.07;;;3.87;;
13040;SDS011;6587;42.728;23.288;2023-04-01T15:25:29;4.83;;;3.60;;
13040;SDS011;6587;42.728;23.288;2023-04-01T15:27:59;7.73;;;3.70;;
13040;SDS011;6587;42.728;23.288;2023-04-01T15:30:28;8.77;;;4.87;;
13040;SDS011;6587;42.728;23.288;2023-04-01T15:35:45;8.23;;;4.50;;
13040;SDS011;6587;42.728;23.288;2023-04-01T15:38:17;7.80;;;4.47;;
13040;SDS011;6587;42.728;23.288;2023-04-01T15:40:47;9.47;;;4.50;;
13040;SDS011;6587;42.728;23.288;2023-04-01T15:43:20;8.53;;;3.77;;
13040;SDS011;6587;42.728;23.288;2023-04-01T15:45:51;8.17;;;4.33;;
13040;SDS011;6587;42.728;23.288;2023-04-01T15:48:24;2.40;;;1.70;;
13040;SDS011;6587;42.728;23.288;2023-04-01T15:53:52;2.87;;;2.37;;
13040;SDS011;6587;42.728;23.288;2023-04-01T15:56:36;3.10;;;2.80;;
13040;SDS011;6587;42.728;23.288;2023-04-01T15:59:12;3.40;;;2.87;;
13040;SDS011;6587;42.728;23.288;2023-04-01T16:01:46;4.33;;;3.53;;
13040;SDS011;6587;42.728;23.288;2023-04-01T16:04:22;4.80;;;3.70;;
13040;SDS011;6587;42.728;23.288;2023-04-01T16:06:57;5.07;;;3.73;;
13040;SDS011;6587;42.728;23.288;2023-04-01T16:09:41;5.57;;;4.10;;
13040;SDS011;6587;42.728;23.288;2023-04-01T16:12:12;7.77;;;3.90;;
13040;SDS011;6587;42.728;23.288;2023-04-01T16:14:43;8.43;;;5.33;;
13040;SDS011;6587;42.728;23.288;2023-04-01T16:17:15;7.17;;;5.00;;
13040;SDS011;6587;42.728;23.288;2023-04-01T16:19:47;7.20;;;4.83;;
13040;SDS011;6587;42.728;23.288;2023-04-01T16:22:16;6.47;;;4.40;;
13040;SDS011;6587;42.728;23.288;2023-04-01T16:24:48;7.97;;;4.63;;